sensor_id;sensor_type;location;lat;lon;timestamp;pressure;altitude;pressure_sealevel;temperature;humidity
33075;BME280;19433;51.292;6.868;2022-10-28T00:01:11;100672.53;;;17.95;85.49
33075;BME280;19433;51.292;6.868;2022-10-28T00:03:38;100664.44;;;17.81;85.29
33075;BME280;19433;51.292;6.868;2022-10-28T00:06:09;100660.75;;;17.92;84.99
33075;BME280;19433;51.292;6.868;2022-10-28T00:08:36;100677.94;;;18.13;84.03
33075;BME280;19433;51.292;6.868;2022-10-28T00:11:16;100663.25;;;18.06;84.35
33075;BME280;19433;51.292;6.868;2022-10-28T00:13:43;100669.19;;;18.09;83.92
33075;BME280;19433;51.292;6.868;2022-10-28T00:18:36;100662.25;;;18.12;83.50
33075;BME280;19433;51.292;6.868;2022-10-28T00:21:26;100653.63;;;18.13;83.22
33075;BME280;19433;51.292;6.868;2022-10-28T00:23:52;100648.88;;;18.14;82.90
33075;BME280;19433;51.292;6.868;2022-10-28T00:26:26;100643.91;;;18.16;82.67
33075;BME280;19433;51.292;6.868;2022-10-28T00:28:57;100648.53;;;18.10;82.88
33075;BME280;19433;51.292;6.868;2022-10-28T00:31:24;100644.78;;;18.05;82.94
33075;BME280;19433;51.292;6.868;2022-10-28T00:33:50;100653.72;;;18.18;82.25
33075;BME280;19433;51.292;6.868;2022-10-28T00:36:21;100640.00;;;18.17;81.88
33075;BME280;19433;51.292;6.868;2022-10-28T00:38:48;100646.34;;;18.12;82.14
33075;BME280;19433;51.292;6.868;2022-10-28T00:41:26;100646.16;;;18.19;81.32
33075;BME280;19433;51.292;6.868;2022-10-28T00:43:57;100646.78;;;18.21;80.78
33075;BME280;19433;51.292;6.868;2022-10-28T00:46:29;100636.41;;;18.33;80.54
33075;BME280;19433;51.292;6.868;2022-10-28T00:49:05;100634.59;;;18.27;80.25
33075;BME280;19433;51.292;6.868;2022-10-28T00:51:34;100641.16;;;18.33;80.00
33075;BME280;19433;51.292;6.868;2022-10-28T00:54:00;100647.75;;;18.43;79.54
33075;BME280;19433;51.292;6.868;2022-10-28T00:56:29;100625.03;;;18.40;79.31
33075;BME280;19433;51.292;6.868;2022-10-28T00:58:58;100630.19;;;18.31;79.70
33075;BME280;19433;51.292;6.868;2022-10-28T01:01:25;100635.97;;;18.41;79.13
33075;BME280;19433;51.292;6.868;2022-10-28T01:03:50;100625.28;;;18.38;79.35
33075;BME280;19433;51.292;6.868;2022-10-28T01:06:15;100643.75;;;18.39;79.29
33075;BME280;19433;51.292;6.868;2022-10-28T01:08:40;100648.97;;;18.47;78.72
33075;BME280;19433;51.292;6.868;2022-10-28T01:14:31;100659.63;;;18.50;78.54
33075;BME280;19433;51.292;6.868;2022-10-28T01:17:23;100644.47;;;18.46;77.97
33075;BME280;19433;51.292;6.868;2022-10-28T01:23:03;100651.47;;;18.60;77.26
33075;BME280;19433;51.292;6.868;2022-10-28T01:37:31;100625.81;;;18.52;77.61
33075;BME280;19433;51.292;6.868;2022-10-28T01:40:17;100617.75;;;18.55;77.19
33075;BME280;19433;51.292;6.868;2022-10-28T01:51:10;100632.59;;;18.56;77.24
33075;BME280;19433;51.292;6.868;2022-10-28T01:53:38;100634.69;;;18.49;77.57
33075;BME280;19433;51.292;6.868;2022-10-28T01:56:09;100639.19;;;18.61;76.94
33075;BME280;19433;51.292;6.868;2022-10-28T01:58:37;100614.50;;;18.58;76.70
33075;BME280;19433;51.292;6.868;2022-10-28T02:01:04;100617.16;;;18.53;76.97
33075;BME280;19433;51.292;6.868;2022-10-28T02:03:30;100623.19;;;18.45;78.04
33075;BME280;19433;51.292;6.868;2022-10-28T02:05:57;100626.59;;;18.47;77.35
33075;BME280;19433;51.292;6.868;2022-10-28T02:08:36;100625.88;;;18.40;77.48
33075;BME280;19433;51.292;6.868;2022-10-28T02:11:24;100616.28;;;18.36;77.64
33075;BME280;19433;51.292;6.868;2022-10-28T02:16:46;100615.97;;;18.33;77.90
33075;BME280;19433;51.292;6.868;2022-10-28T02:19:29;100608.22;;;18.23;78.44
33075;BME280;19433;51.292;6.868;2022-10-28T02:22:09;100616.44;;;18.13;79.05
33075;BME280;19433;51.292;6.868;2022-10-28T02:24:53;100613.53;;;18.08;79.41
33075;BME280;19433;51.292;6.868;2022-10-28T02:27:37;100603.00;;;17.98;79.47
33075;BME280;19433;51.292;6.868;2022-10-28T02:30:11;100599.75;;;17.89;80.02
33075;BME280;19433;51.292;6.868;2022-10-28T02:32:41;100610.19;;;17.94;79.92
33075;BME280;19433;51.292;6.868;2022-10-28T02:35:13;100613.63;;;17.84;80.12
33075;BME280;19433;51.292;6.868;2022-10-28T02:37:43;100615.47;;;17.79;80.63
33075;BME280;19433;51.292;6.868;2022-10-28T02:40:13;100615.59;;;17.84;80.25
33075;BME280;19433;51.292;6.868;2022-10-28T02:42:46;100604.84;;;17.92;79.61
33075;BME280;19433;51.292;6.868;2022-10-28T02:45:20;100600.84;;;17.88;79.77
33075;BME280;19433;51.292;6.868;2022-10-28T02:47:51;100591.59;;;17.88;79.90
33075;BME280;19433;51.292;6.868;2022-10-28T02:50:21;100605.19;;;17.96;79.67
33075;BME280;19433;51.292;6.868;2022-10-28T02:52:50;100600.84;;;17.88;80.19
33075;BME280;19433;51.292;6.868;2022-10-28T02:55:21;100597.25;;;17.76;80.30
33075;BME280;19433;51.292;6.868;2022-10-28T02:57:49;100602.78;;;17.88;79.89
33075;BME280;19433;51.292;6.868;2022-10-28T03:00:18;100594.06;;;17.84;80.20
33075;BME280;19433;51.292;6.868;2022-10-28T03:02:44;100593.38;;;17.77;80.33
33075;BME280;19433;51.292;6.868;2022-10-28T03:05:10;100586.19;;;17.81;80.35
33075;BME280;19433;51.292;6.868;2022-10-28T03:07:35;100584.91;;;17.89;80.03
33075;BME280;19433;51.292;6.868;2022-10-28T03:10:00;100582.19;;;17.77;80.97
33075;BME280;19433;51.292;6.868;2022-10-28T03:12:26;100580.88;;;17.68;81.13
33075;BME280;19433;51.292;6.868;2022-10-28T03:14:51;100589.03;;;17.70;81.17
33075;BME280;19433;51.292;6.868;2022-10-28T03:17:16;100572.34;;;17.75;80.97
33075;BME280;19433;51.292;6.868;2022-10-28T03:19:42;100567.00;;;17.73;80.53
33075;BME280;19433;51.292;6.868;2022-10-28T03:22:07;100579.25;;;17.84;80.39
33075;BME280;19433;51.292;6.868;2022-10-28T03:24:32;100569.47;;;17.70;80.78
33075;BME280;19433;51.292;6.868;2022-10-28T03:26:58;100573.19;;;17.75;81.03
33075;BME280;19433;51.292;6.868;2022-10-28T03:29:23;100580.13;;;17.73;80.93
33075;BME280;19433;51.292;6.868;2022-10-28T03:31:49;100570.66;;;17.62;81.08
33075;BME280;19433;51.292;6.868;2022-10-28T03:34:14;100568.03;;;17.67;80.97
33075;BME280;19433;51.292;6.868;2022-10-28T03:36:39;100566.31;;;17.66;81.13
33075;BME280;19433;51.292;6.868;2022-10-28T03:39:05;100563.03;;;17.69;80.97
33075;BME280;19433;51.292;6.868;2022-10-28T03:41:30;100564.81;;;17.75;80.76
33075;BME280;19433;51.292;6.868;2022-10-28T03:43:55;100551.50;;;17.66;80.93
33075;BME280;19433;51.292;6.868;2022-10-28T03:46:20;100558.88;;;17.60;81.19
33075;BME280;19433;51.292;6.868;2022-10-28T03:48:46;100546.25;;;17.69;81.03
33075;BME280;19433;51.292;6.868;2022-10-28T03:51:11;100560.44;;;17.79;80.14
33075;BME280;19433;51.292;6.868;2022-10-28T03:53:36;100560.31;;;17.74;80.66
33075;BME280;19433;51.292;6.868;2022-10-28T03:56:02;100560.84;;;17.71;80.54
33075;BME280;19433;51.292;6.868;2022-10-28T03:58:27;100560.47;;;17.68;80.94
33075;BME280;19433;51.292;6.868;2022-10-28T04:00:53;100558.06;;;17.71;80.75
33075;BME280;19433;51.292;6.868;2022-10-28T04:03:20;100553.06;;;17.62;81.25
33075;BME280;19433;51.292;6.868;2022-10-28T04:05:46;100544.81;;;17.67;80.64
33075;BME280;19433;51.292;6.868;2022-10-28T04:08:13;100550.75;;;17.70;80.22
33075;BME280;19433;51.292;6.868;2022-10-28T04:10:38;100544.66;;;17.73;80.18
33075;BME280;19433;51.292;6.868;2022-10-28T04:13:04;100543.13;;;17.66;80.43
33075;BME280;19433;51.292;6.868;2022-10-28T04:15:30;100552.69;;;17.70;80.32
33075;BME280;19433;51.292;6.868;2022-10-28T04:17:55;100552.19;;;17.61;80.88
33075;BME280;19433;51.292;6.868;2022-10-28T04:20:22;100556.78;;;17.79;80.27
33075;BME280;19433;51.292;6.868;2022-10-28T04:22:47;100557.03;;;17.77;80.21
33075;BME280;19433;51.292;6.868;2022-10-28T04:25:13;100546.59;;;17.73;79.98
33075;BME280;19433;51.292;6.868;2022-10-28T04:27:38;100563.63;;;17.71;80.62
33075;BME280;19433;51.292;6.868;2022-10-28T04:30:04;100556.34;;;17.70;80.69
33075;BME280;19433;51.292;6.868;2022-10-28T04:32:30;100564.50;;;17.72;80.82
33075;BME280;19433;51.292;6.868;2022-10-28T04:34:55;100573.69;;;17.72;80.62
33075;BME280;19433;51.292;6.868;2022-10-28T04:37:20;100570.06;;;17.60;80.95
33075;BME280;19433;51.292;6.868;2022-10-28T04:39:46;100571.75;;;17.61;81.11
33075;BME280;19433;51.292;6.868;2022-10-28T04:42:11;100572.16;;;17.65;80.69
33075;BME280;19433;51.292;6.868;2022-10-28T04:44:36;100564.88;;;17.52;81.51
33075;BME280;19433;51.292;6.868;2022-10-28T04:47:02;100572.59;;;17.62;81.02
33075;BME280;19433;51.292;6.868;2022-10-28T04:49:27;100565.81;;;17.69;80.73
33075;BME280;19433;51.292;6.868;2022-10-28T04:51:52;100573.38;;;17.69;80.72
33075;BME280;19433;51.292;6.868;2022-10-28T04:54:17;100564.63;;;17.65;80.62
33075;BME280;19433;51.292;6.868;2022-10-28T04:56:43;100565.41;;;17.77;79.79
33075;BME280;19433;51.292;6.868;2022-10-28T04:59:08;100575.50;;;17.78;80.05
33075;BME280;19433;51.292;6.868;2022-10-28T05:01:33;100563.72;;;17.76;80.07
33075;BME280;19433;51.292;6.868;2022-10-28T05:03:58;100580.09;;;17.84;79.75
33075;BME280;19433;51.292;6.868;2022-10-28T05:06:24;100565.41;;;17.77;80.04
33075;BME280;19433;51.292;6.868;2022-10-28T05:08:49;100565.41;;;17.77;79.70
33075;BME280;19433;51.292;6.868;2022-10-28T05:11:14;100575.34;;;17.85;79.63
33075;BME280;19433;51.292;6.868;2022-10-28T05:13:40;100568.88;;;17.68;80.34
33075;BME280;19433;51.292;6.868;2022-10-28T05:16:05;100561.41;;;17.73;79.90
33075;BME280;19433;51.292;6.868;2022-10-28T05:18:31;100568.03;;;17.67;80.13
33075;BME280;19433;51.292;6.868;2022-10-28T05:20:56;100573.19;;;17.75;80.18
33075;BME280;19433;51.292;6.868;2022-10-28T05:23:22;100583.03;;;17.78;80.18
33075;BME280;19433;51.292;6.868;2022-10-28T05:25:48;100569.31;;;17.76;79.81
33075;BME280;19433;51.292;6.868;2022-10-28T05:28:13;100581.69;;;17.80;79.96
33075;BME280;19433;51.292;6.868;2022-10-28T05:30:39;100569.47;;;17.70;80.33
33075;BME280;19433;51.292;6.868;2022-10-28T05:33:04;100565.59;;;17.71;80.47
33075;BME280;19433;51.292;6.868;2022-10-28T05:35:30;100578.28;;;17.78;80.55
33075;BME280;19433;51.292;6.868;2022-10-28T05:37:56;100567.41;;;17.65;80.33
33075;BME280;19433;51.292;6.868;2022-10-28T05:40:21;100577.31;;;17.73;80.29
33075;BME280;19433;51.292;6.868;2022-10-28T05:42:46;100589.34;;;17.73;80.21
33075;BME280;19433;51.292;6.868;2022-10-28T05:45:12;100583.19;;;17.71;80.06
33075;BME280;19433;51.292;6.868;2022-10-28T05:47:41;100575.38;;;17.73;80.12
33075;BME280;19433;51.292;6.868;2022-10-28T05:50:07;100568.09;;;17.72;80.33
33075;BME280;19433;51.292;6.868;2022-10-28T05:52:33;100569.56;;;17.75;80.05
33075;BME280;19433;51.292;6.868;2022-10-28T05:54:58;100573.56;;;17.79;79.47
33075;BME280;19433;51.292;6.868;2022-10-28T05:57:23;100567.50;;;17.58;80.68
33075;BME280;19433;51.292;6.868;2022-10-28T05:59:48;100565.72;;;17.64;80.31
33075;BME280;19433;51.292;6.868;2022-10-28T06:02:14;100571.31;;;17.64;80.88
33075;BME280;19433;51.292;6.868;2022-10-28T06:04:40;100577.84;;;17.58;80.86
33075;BME280;19433;51.292;6.868;2022-10-28T06:07:05;100569.13;;;17.54;81.07
33075;BME280;19433;51.292;6.868;2022-10-28T06:09:30;100569.72;;;17.56;80.86
33075;BME280;19433;51.292;6.868;2022-10-28T06:11:56;100578.94;;;17.57;80.93
33075;BME280;19433;51.292;6.868;2022-10-28T06:14:21;100570.47;;;17.52;81.22
33075;BME280;19433;51.292;6.868;2022-10-28T06:16:46;100577.84;;;17.58;80.94
33075;BME280;19433;51.292;6.868;2022-10-28T06:19:11;100576.25;;;17.62;81.01
33075;BME280;19433;51.292;6.868;2022-10-28T06:21:37;100587.44;;;17.62;80.68
33075;BME280;19433;51.292;6.868;2022-10-28T06:24:02;100585.72;;;17.73;80.44
33075;BME280;19433;51.292;6.868;2022-10-28T06:26:28;100577.50;;;17.66;80.50
33075;BME280;19433;51.292;6.868;2022-10-28T06:28:53;100586.72;;;17.67;80.60
33075;BME280;19433;51.292;6.868;2022-10-28T06:31:18;100586.47;;;17.68;80.35
33075;BME280;19433;51.292;6.868;2022-10-28T06:33:43;100588.50;;;17.73;80.59
33075;BME280;19433;51.292;6.868;2022-10-28T06:36:09;100601.00;;;17.82;79.47
33075;BME280;19433;51.292;6.868;2022-10-28T06:38:34;100598.81;;;17.84;79.78
33075;BME280;19433;51.292;6.868;2022-10-28T06:40:59;100597.72;;;17.85;79.51
33075;BME280;19433;51.292;6.868;2022-10-28T06:43:25;100593.41;;;17.94;79.19
33075;BME280;19433;51.292;6.868;2022-10-28T06:45:50;100604.84;;;17.92;79.05
33075;BME280;19433;51.292;6.868;2022-10-28T06:48:20;100609.16;;;17.83;79.61
33075;BME280;19433;51.292;6.868;2022-10-28T06:50:46;100595.31;;;17.77;79.75
33075;BME280;19433;51.292;6.868;2022-10-28T06:53:11;100608.66;;;17.86;79.65
33075;BME280;19433;51.292;6.868;2022-10-28T06:55:36;100605.50;;;17.83;78.89
33075;BME280;19433;51.292;6.868;2022-10-28T06:58:02;100610.72;;;17.79;80.26
33075;BME280;19433;51.292;6.868;2022-10-28T07:00:29;100603.19;;;17.80;80.50
33075;BME280;19433;51.292;6.868;2022-10-28T07:02:55;100598.75;;;17.96;79.20
33075;BME280;19433;51.292;6.868;2022-10-28T07:05:22;100601.06;;;17.99;79.25
33075;BME280;19433;51.292;6.868;2022-10-28T07:07:48;100607.09;;;18.07;78.48
33075;BME280;19433;51.292;6.868;2022-10-28T07:10:13;100607.00;;;18.19;78.28
33075;BME280;19433;51.292;6.868;2022-10-28T07:12:39;100609.81;;;18.19;78.25
33075;BME280;19433;51.292;6.868;2022-10-28T07:15:05;100611.72;;;18.30;77.82
33075;BME280;19433;51.292;6.868;2022-10-28T07:17:30;100615.63;;;18.29;77.81
33075;BME280;19433;51.292;6.868;2022-10-28T07:19:55;100604.44;;;18.29;77.19
33075;BME280;19433;51.292;6.868;2022-10-28T07:22:21;100612.75;;;18.41;77.73
33075;BME280;19433;51.292;6.868;2022-10-28T07:24:46;100605.53;;;18.28;77.38
33075;BME280;19433;51.292;6.868;2022-10-28T07:27:12;100608.00;;;18.41;77.09
33075;BME280;19433;51.292;6.868;2022-10-28T07:29:37;100623.09;;;18.57;76.53
33075;BME280;19433;51.292;6.868;2022-10-28T07:32:03;100624.16;;;18.68;75.99
33075;BME280;19433;51.292;6.868;2022-10-28T07:34:28;100624.41;;;18.66;75.63
33075;BME280;19433;51.292;6.868;2022-10-28T07:36:54;100614.06;;;18.83;75.16
33075;BME280;19433;51.292;6.868;2022-10-28T07:39:20;100615.91;;;18.94;74.59
33075;BME280;19433;51.292;6.868;2022-10-28T07:41:45;100630.19;;;19.31;73.29
33075;BME280;19433;51.292;6.868;2022-10-28T07:44:11;100626.94;;;19.78;71.30
33075;BME280;19433;51.292;6.868;2022-10-28T07:46:36;100623.22;;;20.21;69.28
33075;BME280;19433;51.292;6.868;2022-10-28T07:49:02;100624.59;;;20.19;68.94
33075;BME280;19433;51.292;6.868;2022-10-28T07:51:28;100625.16;;;20.16;68.93
33075;BME280;19433;51.292;6.868;2022-10-28T07:53:54;100629.72;;;20.00;69.47
33075;BME280;19433;51.292;6.868;2022-10-28T07:56:20;100621.56;;;19.98;69.59
33075;BME280;19433;51.292;6.868;2022-10-28T07:58:45;100636.13;;;20.22;68.76
33075;BME280;19433;51.292;6.868;2022-10-28T08:01:13;100633.41;;;20.27;68.48
33075;BME280;19433;51.292;6.868;2022-10-28T08:03:39;100642.00;;;20.43;68.16
33075;BME280;19433;51.292;6.868;2022-10-28T08:06:08;100647.00;;;20.67;67.42
33075;BME280;19433;51.292;6.868;2022-10-28T08:08:34;100637.88;;;20.82;66.63
33075;BME280;19433;51.292;6.868;2022-10-28T08:11:07;100642.72;;;20.92;66.23
33075;BME280;19433;51.292;6.868;2022-10-28T08:13:33;100653.13;;;20.91;65.43
33075;BME280;19433;51.292;6.868;2022-10-28T08:15:58;100652.41;;;21.11;64.95
33075;BME280;19433;51.292;6.868;2022-10-28T08:18:24;100665.91;;;21.46;63.18
33075;BME280;19433;51.292;6.868;2022-10-28T08:20:49;100647.34;;;21.45;63.69
33075;BME280;19433;51.292;6.868;2022-10-28T08:23:15;100646.53;;;21.55;62.73
33075;BME280;19433;51.292;6.868;2022-10-28T08:25:47;100651.22;;;21.39;63.84
33075;BME280;19433;51.292;6.868;2022-10-28T08:28:13;100636.34;;;21.01;65.29
33075;BME280;19433;51.292;6.868;2022-10-28T08:30:38;100622.97;;;20.82;66.40
33075;BME280;19433;51.292;6.868;2022-10-28T08:33:03;100618.97;;;20.73;66.18
33075;BME280;19433;51.292;6.868;2022-10-28T08:35:29;100617.59;;;20.43;67.57
33075;BME280;19433;51.292;6.868;2022-10-28T08:37:54;100637.69;;;20.62;67.50
33075;BME280;19433;51.292;6.868;2022-10-28T08:40:27;100639.38;;;20.95;66.25
33075;BME280;19433;51.292;6.868;2022-10-28T08:43:04;100627.09;;;22.00;62.35
33075;BME280;19433;51.292;6.868;2022-10-28T08:45:55;100639.31;;;24.17;55.27
33075;BME280;19433;51.292;6.868;2022-10-28T08:48:27;100647.50;;;25.89;49.50
33075;BME280;19433;51.292;6.868;2022-10-28T08:51:00;100655.94;;;26.74;45.68
33075;BME280;19433;51.292;6.868;2022-10-28T08:53:38;100647.97;;;26.76;45.51
33075;BME280;19433;51.292;6.868;2022-10-28T08:56:17;100644.38;;;27.82;43.44
33075;BME280;19433;51.292;6.868;2022-10-28T08:58:44;100649.63;;;29.24;40.81
33075;BME280;19433;51.292;6.868;2022-10-28T09:01:21;100659.28;;;30.64;37.15
33075;BME280;19433;51.292;6.868;2022-10-28T09:03:55;100650.63;;;29.81;37.75
33075;BME280;19433;51.292;6.868;2022-10-28T09:06:22;100651.56;;;30.82;36.83
33075;BME280;19433;51.292;6.868;2022-10-28T09:08:48;100650.72;;;30.64;36.03
33075;BME280;19433;51.292;6.868;2022-10-28T09:14:28;100654.88;;;28.86;39.30
33075;BME280;19433;51.292;6.868;2022-10-28T09:17:10;100650.25;;;28.76;39.49
33075;BME280;19433;51.292;6.868;2022-10-28T09:19:50;100648.69;;;29.37;39.37
33075;BME280;19433;51.292;6.868;2022-10-28T09:22:23;100656.59;;;30.93;36.20
33075;BME280;19433;51.292;6.868;2022-10-28T09:25:01;100636.28;;;29.55;37.19
33075;BME280;19433;51.292;6.868;2022-10-28T09:27:54;100633.31;;;29.69;37.36
33075;BME280;19433;51.292;6.868;2022-10-28T09:33:34;100634.78;;;30.63;35.72
33075;BME280;19433;51.292;6.868;2022-10-28T09:36:02;100639.97;;;31.04;34.97
33075;BME280;19433;51.292;6.868;2022-10-28T09:38:32;100627.03;;;30.37;35.58
33075;BME280;19433;51.292;6.868;2022-10-28T09:41:15;100640.31;;;29.94;36.46
33075;BME280;19433;51.292;6.868;2022-10-28T09:43:49;100633.28;;;29.07;38.86
33075;BME280;19433;51.292;6.868;2022-10-28T09:46:17;100623.66;;;28.58;39.91
33075;BME280;19433;51.292;6.868;2022-10-28T09:48:47;100629.53;;;28.12;40.22
33075;BME280;19433;51.292;6.868;2022-10-28T09:51:41;100628.66;;;26.78;43.71
33075;BME280;19433;51.292;6.868;2022-10-28T09:54:09;100623.94;;;25.93;46.27
33075;BME280;19433;51.292;6.868;2022-10-28T09:56:35;100627.44;;;25.85;46.77
33075;BME280;19433;51.292;6.868;2022-10-28T09:59:02;100634.75;;;27.37;43.56
33075;BME280;19433;51.292;6.868;2022-10-28T10:01:31;100639.81;;;29.30;39.09
33075;BME280;19433;51.292;6.868;2022-10-28T10:03:57;100658.53;;;30.24;37.64
33075;BME280;19433;51.292;6.868;2022-10-28T10:06:27;100664.50;;;31.14;35.14
33075;BME280;19433;51.292;6.868;2022-10-28T10:08:56;100651.56;;;30.64;35.51
33075;BME280;19433;51.292;6.868;2022-10-28T10:13:54;100653.13;;;29.74;37.90
33075;BME280;19433;51.292;6.868;2022-10-28T10:16:38;100648.16;;;29.26;38.67
33075;BME280;19433;51.292;6.868;2022-10-28T10:19:06;100634.78;;;28.82;39.40
33075;BME280;19433;51.292;6.868;2022-10-28T10:24:33;100631.66;;;28.20;41.12
33075;BME280;19433;51.292;6.868;2022-10-28T10:27:01;100637.56;;;28.60;40.09
33075;BME280;19433;51.292;6.868;2022-10-28T10:29:28;100627.88;;;28.97;39.24
33075;BME280;19433;51.292;6.868;2022-10-28T10:32:31;100638.88;;;28.76;39.48
33075;BME280;19433;51.292;6.868;2022-10-28T10:37:59;100629.66;;;29.15;38.67
33075;BME280;19433;51.292;6.868;2022-10-28T10:40:38;100630.03;;;30.41;37.11
33075;BME280;19433;51.292;6.868;2022-10-28T10:45:58;100632.56;;;30.51;35.81
33075;BME280;19433;51.292;6.868;2022-10-28T10:48:25;100627.09;;;30.55;35.73
33075;BME280;19433;51.292;6.868;2022-10-28T10:50:51;100628.25;;;30.97;35.01
33075;BME280;19433;51.292;6.868;2022-10-28T10:53:20;100636.25;;;31.38;34.16
33075;BME280;19433;51.292;6.868;2022-10-28T10:55:50;100639.56;;;31.95;33.19
33075;BME280;19433;51.292;6.868;2022-10-28T10:58:19;100632.97;;;31.65;33.94
33075;BME280;19433;51.292;6.868;2022-10-28T11:00:54;100622.13;;;30.21;36.00
33075;BME280;19433;51.292;6.868;2022-10-28T11:03:26;100616.31;;;27.66;41.80
33075;BME280;19433;51.292;6.868;2022-10-28T11:05:57;100613.97;;;27.55;42.12
33075;BME280;19433;51.292;6.868;2022-10-28T11:08:32;100621.09;;;28.84;39.91
33075;BME280;19433;51.292;6.868;2022-10-28T11:11:14;100611.84;;;29.32;38.38
33075;BME280;19433;51.292;6.868;2022-10-28T11:13:44;100615.28;;;29.43;38.29
33075;BME280;19433;51.292;6.868;2022-10-28T11:16:18;100608.59;;;29.87;38.03
33075;BME280;19433;51.292;6.868;2022-10-28T11:18:46;100607.69;;;30.26;37.11
33075;BME280;19433;51.292;6.868;2022-10-28T11:26:34;100598.53;;;30.98;36.25
33075;BME280;19433;51.292;6.868;2022-10-28T11:29:10;100591.50;;;30.69;36.22
33075;BME280;19433;51.292;6.868;2022-10-28T11:31:45;100594.16;;;30.74;36.58
33075;BME280;19433;51.292;6.868;2022-10-28T11:34:37;100606.66;;;31.42;34.98
33075;BME280;19433;51.292;6.868;2022-10-28T11:37:38;100603.41;;;32.29;33.98
33075;BME280;19433;51.292;6.868;2022-10-28T11:45:43;100578.78;;;28.91;39.51
33075;BME280;19433;51.292;6.868;2022-10-28T11:56:14;100574.69;;;29.37;39.66
33075;BME280;19433;51.292;6.868;2022-10-28T11:59:04;100571.75;;;29.42;39.15
33075;BME280;19433;51.292;6.868;2022-10-28T12:07:08;100570.78;;;29.55;38.74
33075;BME280;19433;51.292;6.868;2022-10-28T12:12:34;100576.69;;;30.41;38.08
33075;BME280;19433;51.292;6.868;2022-10-28T12:15:16;100567.88;;;31.33;36.17
33075;BME280;19433;51.292;6.868;2022-10-28T12:17:55;100558.97;;;30.70;37.78
33075;BME280;19433;51.292;6.868;2022-10-28T12:20:29;100563.22;;;31.28;35.79
33075;BME280;19433;51.292;6.868;2022-10-28T12:22:59;100563.44;;;31.15;36.63
33075;BME280;19433;51.292;6.868;2022-10-28T12:25:29;100550.72;;;30.77;36.86
33075;BME280;19433;51.292;6.868;2022-10-28T12:28:00;100548.69;;;30.35;38.05
33075;BME280;19433;51.292;6.868;2022-10-28T12:30:33;100542.59;;;29.93;38.53
33075;BME280;19433;51.292;6.868;2022-10-28T12:33:24;100543.78;;;29.44;39.92
33075;BME280;19433;51.292;6.868;2022-10-28T12:36:19;100535.97;;;28.74;41.74
33075;BME280;19433;51.292;6.868;2022-10-28T12:38:56;100532.38;;;28.60;41.91
33075;BME280;19433;51.292;6.868;2022-10-28T12:41:26;100542.63;;;28.25;42.69
33075;BME280;19433;51.292;6.868;2022-10-28T12:44:04;100539.28;;;28.90;41.81
33075;BME280;19433;51.292;6.868;2022-10-28T12:55:02;100522.47;;;26.57;46.97
33075;BME280;19433;51.292;6.868;2022-10-28T12:57:33;100514.91;;;26.34;48.46
33075;BME280;19433;51.292;6.868;2022-10-28T13:00:05;100519.19;;;26.12;48.67
33075;BME280;19433;51.292;6.868;2022-10-28T13:02:49;100527.22;;;25.86;50.08
33075;BME280;19433;51.292;6.868;2022-10-28T13:05:22;100530.81;;;25.92;50.43
33075;BME280;19433;51.292;6.868;2022-10-28T13:19:16;100533.38;;;25.46;51.64
33075;BME280;19433;51.292;6.868;2022-10-28T13:27:16;100552.28;;;25.50;52.24
33075;BME280;19433;51.292;6.868;2022-10-28T13:29:49;100546.25;;;25.57;52.09
33075;BME280;19433;51.292;6.868;2022-10-28T13:32:35;100562.75;;;25.26;53.46
33075;BME280;19433;51.292;6.868;2022-10-28T13:35:20;100564.84;;;25.15;53.52
33075;BME280;19433;51.292;6.868;2022-10-28T13:37:49;100563.13;;;25.19;53.82
33075;BME280;19433;51.292;6.868;2022-10-28T13:43:18;100559.50;;;25.38;53.32
33075;BME280;19433;51.292;6.868;2022-10-28T13:45:52;100565.66;;;25.45;52.27
33075;BME280;19433;51.292;6.868;2022-10-28T13:53:39;100576.75;;;25.65;52.59
33075;BME280;19433;51.292;6.868;2022-10-28T13:58:58;100564.66;;;25.54;52.79
33075;BME280;19433;51.292;6.868;2022-10-28T14:01:36;100563.97;;;25.20;52.88
33075;BME280;19433;51.292;6.868;2022-10-28T14:04:03;100574.81;;;25.08;53.61
33075;BME280;19433;51.292;6.868;2022-10-28T14:06:32;100580.31;;;24.94;54.47
33075;BME280;19433;51.292;6.868;2022-10-28T14:08:57;100583.53;;;24.82;54.41
33075;BME280;19433;51.292;6.868;2022-10-28T14:11:24;100582.81;;;24.67;56.10
33075;BME280;19433;51.292;6.868;2022-10-28T14:13:58;100561.72;;;24.54;54.28
33075;BME280;19433;51.292;6.868;2022-10-28T14:16:25;100570.63;;;24.37;53.80
33075;BME280;19433;51.292;6.868;2022-10-28T14:18:59;100570.44;;;24.24;52.78
33075;BME280;19433;51.292;6.868;2022-10-28T14:22:00;100580.88;;;24.18;54.65
33075;BME280;19433;51.292;6.868;2022-10-28T14:24:37;100588.31;;;24.04;54.20
33075;BME280;19433;51.292;6.868;2022-10-28T14:29:27;100584.22;;;23.76;54.46
33075;BME280;19433;51.292;6.868;2022-10-28T14:31:54;100603.47;;;23.54;53.87
33075;BME280;19433;51.292;6.868;2022-10-28T14:40:21;100611.38;;;23.41;54.44
33075;BME280;19433;51.292;6.868;2022-10-28T14:42:58;100615.69;;;23.13;54.37
33075;BME280;19433;51.292;6.868;2022-10-28T14:46:07;100619.06;;;23.10;54.85
33075;BME280;19433;51.292;6.868;2022-10-28T14:49:11;100626.97;;;22.93;54.93
33075;BME280;19433;51.292;6.868;2022-10-28T14:51:38;100623.03;;;22.84;54.92
33075;BME280;19433;51.292;6.868;2022-10-28T14:54:08;100622.16;;;22.73;55.79
33075;BME280;19433;51.292;6.868;2022-10-28T14:56:38;100624.97;;;22.73;56.12
33075;BME280;19433;51.292;6.868;2022-10-28T14:59:18;100625.25;;;22.67;56.50
33075;BME280;19433;51.292;6.868;2022-10-28T15:02:00;100625.22;;;22.62;57.42
33075;BME280;19433;51.292;6.868;2022-10-28T15:04:28;100619.06;;;22.44;56.58
33075;BME280;19433;51.292;6.868;2022-10-28T15:06:54;100621.81;;;22.34;57.43